createdAt,value
2018-02-07T00:02:20.508Z,0.00
2018-02-07T00:04:47.998Z,-0.20
2018-02-07T00:07:15.486Z,0.00
2018-02-07T00:09:42.948Z,0.00
2018-02-07T00:12:10.436Z,0.00
2018-02-07T00:14:37.912Z,0.00
2018-02-07T00:17:05.395Z,-0.20
2018-02-07T00:19:32.857Z,0.00
2018-02-07T00:22:00.338Z,-0.20
2018-02-07T00:24:27.846Z,-0.20
2018-02-07T00:26:55.339Z,-0.10
2018-02-07T00:29:22.813Z,-0.30
2018-02-07T00:31:50.297Z,-0.20
2018-02-07T00:34:18.521Z,0.30
2018-02-07T00:36:46.019Z,0.00
2018-02-07T00:39:14.245Z,0.00
2018-02-07T00:41:41.717Z,0.00
2018-02-07T00:44:09.186Z,0.00
2018-02-07T00:46:36.670Z,0.10
2018-02-07T00:49:04.898Z,0.40
2018-02-07T00:51:33.681Z,0.20
2018-02-07T00:54:01.133Z,0.40
2018-02-07T00:56:28.616Z,0.00
2018-02-07T00:58:56.137Z,0.60
2018-02-07T01:01:25.035Z,0.50
2018-02-07T01:03:52.554Z,0.30
2018-02-07T01:06:20.037Z,0.30
2018-02-07T01:08:48.427Z,0.30
2018-02-07T01:11:17.049Z,0.00
2018-02-07T01:13:45.417Z,0.20
2018-02-07T01:16:15.514Z,0.40
2018-02-07T01:18:44.957Z,0.30
2018-02-07T01:21:20.179Z,0.30
2018-02-07T01:23:48.534Z,0.10
2018-02-07T01:26:18.249Z,0.10
2018-02-07T01:28:48.259Z,0.10
2018-02-07T01:31:16.513Z,0.00
2018-02-07T01:33:47.594Z,0.00
2018-02-07T01:36:17.952Z,0.10
2018-02-07T01:38:46.201Z,0.20
2018-02-07T01:41:16.614Z,0.40
2018-02-07T01:43:45.627Z,0.10
2018-02-07T01:46:14.937Z,0.30
2018-02-07T01:48:42.468Z,0.50
2018-02-07T01:51:09.942Z,0.10
2018-02-07T01:53:37.405Z,0.10
2018-02-07T01:56:04.892Z,0.00
2018-02-07T01:58:32.359Z,0.10
2018-02-07T02:01:00.606Z,0.40
2018-02-07T02:03:28.087Z,0.40
2018-02-07T02:05:56.393Z,0.20
2018-02-07T02:08:24.627Z,0.50
2018-02-07T02:10:52.093Z,0.20
2018-02-07T02:13:28.249Z,0.50
2018-02-07T02:15:55.834Z,0.10
2018-02-07T02:18:24.065Z,0.40
2018-02-07T02:20:51.542Z,0.60
2018-02-07T02:23:19.034Z,0.50
2018-02-07T02:25:47.270Z,0.20
2018-02-07T02:28:14.761Z,0.20
2018-02-07T02:30:43.011Z,0.20
2018-02-07T02:33:10.490Z,0.50
2018-02-07T02:35:37.984Z,0.50
2018-02-07T02:38:05.459Z,0.60
2018-02-07T02:40:32.934Z,0.50
2018-02-07T02:43:00.456Z,0.60
2018-02-07T02:45:27.930Z,0.60
2018-02-07T02:47:55.439Z,0.70
2018-02-07T02:50:25.473Z,0.40
2018-02-07T02:52:53.706Z,0.40
2018-02-07T02:55:21.178Z,0.40
2018-02-07T02:57:48.703Z,0.60
2018-02-07T03:00:16.892Z,0.60
2018-02-07T03:02:44.398Z,0.40
2018-02-07T03:05:12.650Z,0.50
2018-02-07T03:07:40.125Z,0.50
2018-02-07T03:10:08.371Z,0.60
2018-02-07T03:12:36.624Z,0.60
2018-02-07T03:15:04.082Z,0.60
2018-02-07T03:17:31.566Z,0.50
2018-02-07T03:19:59.050Z,0.60
2018-02-07T03:22:26.514Z,0.70
2018-02-07T03:24:54.755Z,0.50
2018-02-07T03:27:22.649Z,0.60
2018-02-07T03:29:50.915Z,0.60
2018-02-07T03:32:18.394Z,0.50
2018-02-07T03:34:46.641Z,0.50
2018-02-07T03:37:14.121Z,0.40
2018-02-07T03:39:42.365Z,0.20
2018-02-07T03:42:09.850Z,0.50
2018-02-07T03:44:37.310Z,0.60
2018-02-07T03:47:04.810Z,0.30
2018-02-07T03:49:32.278Z,0.30
2018-02-07T03:51:59.759Z,0.60
2018-02-07T03:54:27.240Z,0.60
2018-02-07T03:56:54.731Z,0.50
2018-02-07T03:59:22.232Z,0.60
2018-02-07T04:01:49.714Z,0.30
2018-02-07T04:04:17.188Z,0.40
2018-02-07T04:06:45.431Z,0.50
2018-02-07T04:09:12.899Z,0.70
2018-02-07T04:11:40.373Z,0.60
2018-02-07T04:14:08.620Z,0.50
2018-02-07T04:16:36.102Z,0.30
2018-02-07T04:19:03.583Z,0.50
2018-02-07T04:21:31.100Z,0.60
2018-02-07T04:23:58.582Z,0.30
2018-02-07T04:26:26.823Z,0.30
2018-02-07T04:28:54.296Z,0.20
2018-02-07T04:31:21.791Z,0.60
2018-02-07T04:33:50.040Z,0.50
2018-02-07T04:36:17.520Z,0.20
2018-02-07T04:38:45.778Z,0.60
2018-02-07T04:41:13.267Z,0.50
2018-02-07T04:43:40.763Z,0.30
2018-02-07T04:46:08.227Z,0.00
2018-02-07T04:48:35.706Z,0.20
2018-02-07T04:51:03.183Z,0.50
2018-02-07T04:53:31.432Z,0.50
2018-02-07T04:55:58.904Z,0.20
2018-02-07T04:58:26.378Z,0.60
2018-02-07T05:00:54.603Z,0.50
2018-02-07T05:03:22.078Z,0.40
2018-02-07T05:05:49.557Z,0.40
2018-02-07T05:08:17.826Z,0.60
2018-02-07T05:10:45.296Z,0.50
2018-02-07T05:13:13.538Z,0.70
2018-02-07T05:15:41.023Z,0.40
2018-02-07T05:18:08.520Z,0.70
2018-02-07T05:20:35.990Z,0.70
2018-02-07T05:23:03.471Z,0.50
2018-02-07T05:25:30.941Z,0.20
2018-02-07T05:27:58.405Z,0.60
2018-02-07T05:30:25.895Z,0.60
2018-02-07T05:32:54.160Z,0.40
2018-02-07T05:35:22.405Z,0.30
2018-02-07T05:37:49.877Z,0.50
2018-02-07T05:40:17.355Z,0.50
2018-02-07T05:42:45.623Z,0.40
2018-02-07T05:45:13.879Z,0.50
2018-02-07T05:47:41.364Z,0.60
2018-02-07T05:50:09.943Z,0.50
2018-02-07T05:52:38.211Z,0.60
2018-02-07T05:55:05.699Z,0.70
2018-02-07T05:57:33.948Z,0.60
2018-02-07T06:00:01.418Z,0.60
2018-02-07T06:02:30.639Z,0.40
2018-02-07T06:04:58.102Z,0.70
2018-02-07T06:07:25.594Z,0.40
2018-02-07T06:09:53.074Z,0.60
2018-02-07T06:12:21.532Z,0.70
2018-02-07T06:14:49.017Z,0.60
2018-02-07T06:17:16.516Z,0.50
2018-02-07T06:19:44.004Z,0.70
2018-02-07T06:22:12.238Z,0.60
2018-02-07T06:24:39.730Z,0.70
2018-02-07T06:27:07.202Z,0.60
2018-02-07T06:29:34.709Z,0.70
2018-02-07T06:32:02.948Z,0.70
2018-02-07T06:34:30.451Z,0.80
2018-02-07T06:36:58.687Z,0.60
2018-02-07T06:39:27.108Z,0.70
2018-02-07T06:41:55.354Z,0.60
2018-02-07T06:44:22.830Z,0.50
2018-02-07T06:46:51.064Z,0.60
2018-02-07T06:49:18.551Z,0.30
2018-02-07T06:51:46.010Z,0.60
2018-02-07T06:54:14.258Z,0.60
2018-02-07T06:56:41.751Z,0.30
2018-02-07T06:59:10.020Z,0.70
2018-02-07T07:01:37.488Z,0.70
2018-02-07T07:04:05.742Z,0.70
2018-02-07T07:06:33.223Z,0.80
2018-02-07T07:09:01.483Z,0.70
2018-02-07T07:11:28.955Z,0.70
2018-02-07T07:13:57.206Z,0.80
2018-02-07T07:16:24.673Z,0.80
2018-02-07T07:18:52.149Z,0.80
2018-02-07T07:21:20.391Z,0.90
2018-02-07T07:23:47.879Z,0.60
2018-02-07T07:26:16.131Z,0.80
2018-02-07T07:28:43.603Z,0.60
2018-02-07T07:31:11.088Z,0.90
2018-02-07T07:33:39.339Z,0.90
2018-02-07T07:36:06.825Z,0.80
2018-02-07T07:38:34.329Z,0.80
2018-02-07T07:41:01.832Z,0.90
2018-02-07T07:43:30.078Z,0.90
2018-02-07T07:45:57.556Z,0.60
2018-02-07T07:48:25.027Z,0.80
2018-02-07T07:50:53.270Z,0.80
2018-02-07T07:53:20.776Z,0.70
2018-02-07T07:55:50.373Z,0.90
2018-02-07T07:58:17.893Z,1.10
2018-02-07T08:00:47.961Z,1.00
2018-02-07T08:03:21.871Z,1.10
2018-02-07T08:05:49.357Z,1.00
2018-02-07T08:08:16.841Z,1.10
2018-02-07T08:10:44.322Z,0.80
2018-02-07T08:13:12.568Z,1.10
2018-02-07T08:15:40.052Z,1.10
2018-02-07T08:18:08.298Z,1.20
2018-02-07T08:20:35.777Z,1.00
2018-02-07T08:23:03.263Z,1.10
2018-02-07T08:25:30.747Z,1.00
2018-02-07T08:27:59.127Z,1.10
2018-02-07T08:30:26.703Z,1.20
2018-02-07T08:32:56.944Z,1.20
2018-02-07T08:35:28.082Z,1.20
2018-02-07T08:37:55.584Z,1.20
2018-02-07T08:40:23.946Z,1.30
2018-02-07T08:42:53.669Z,1.10
2018-02-07T08:45:22.398Z,1.20
2018-02-07T08:47:50.305Z,1.30
2018-02-07T08:50:20.279Z,1.30
2018-02-07T08:52:47.891Z,1.50
2018-02-07T08:55:16.151Z,1.30
2018-02-07T08:57:43.668Z,1.30
2018-02-07T09:00:15.622Z,1.30
2018-02-07T09:02:44.218Z,1.30
2018-02-07T09:05:16.574Z,1.40
2018-02-07T09:07:44.045Z,1.70
2018-02-07T09:10:11.540Z,1.80
2018-02-07T09:12:39.010Z,1.70
2018-02-07T09:15:06.499Z,1.40
2018-02-07T09:17:35.970Z,1.80
2018-02-07T09:20:03.454Z,1.40
2018-02-07T09:22:31.700Z,1.50
2018-02-07T09:24:59.175Z,1.60
2018-02-07T09:27:26.651Z,1.80
2018-02-07T09:29:54.152Z,1.60
2018-02-07T09:32:21.623Z,1.50
2018-02-07T09:34:49.119Z,1.60
2018-02-07T09:37:16.927Z,1.70
2018-02-07T09:39:44.402Z,1.60
2018-02-07T09:42:11.891Z,1.60
2018-02-07T09:44:39.378Z,1.80
2018-02-07T09:47:07.634Z,1.60
2018-02-07T09:49:35.877Z,1.70
2018-02-07T09:52:03.359Z,1.80
2018-02-07T09:54:30.839Z,1.90
2018-02-07T09:56:58.730Z,1.90
2018-02-07T09:59:26.207Z,2.00
2018-02-07T10:01:53.683Z,2.00
2018-02-07T10:04:21.177Z,2.30
2018-02-07T10:06:49.414Z,2.10
2018-02-07T10:09:16.924Z,2.40
2018-02-07T10:11:44.570Z,2.10
2018-02-07T10:14:12.296Z,2.10
2018-02-07T10:16:39.766Z,2.20
2018-02-07T10:19:07.251Z,2.20
2018-02-07T10:21:35.492Z,2.30
2018-02-07T10:24:02.976Z,2.40
2018-02-07T10:26:32.753Z,2.30
2018-02-07T10:29:01.878Z,2.30
2018-02-07T10:31:29.369Z,2.40
2018-02-07T10:33:56.846Z,2.20
2018-02-07T10:36:24.327Z,2.30
2018-02-07T10:38:51.805Z,2.40
2018-02-07T10:41:19.283Z,2.50
2018-02-07T10:43:47.528Z,2.40
2018-02-07T10:46:15.000Z,2.20
2018-02-07T10:48:42.488Z,2.50
2018-02-07T10:51:10.731Z,2.50
2018-02-07T10:53:38.199Z,2.70
2018-02-07T10:56:05.690Z,2.70
2018-02-07T10:58:33.142Z,2.60
2018-02-07T11:01:00.621Z,2.70
2018-02-07T11:03:28.091Z,2.60
2018-02-07T11:05:55.566Z,3.00
2018-02-07T11:08:23.799Z,2.70
2018-02-07T11:10:51.290Z,2.50
2018-02-07T11:13:18.755Z,2.60
2018-02-07T11:15:46.248Z,2.40
2018-02-07T11:18:14.482Z,2.60
2018-02-07T11:20:41.964Z,2.40
2018-02-07T11:23:09.442Z,2.40
2018-02-07T11:25:37.685Z,2.70
2018-02-07T11:28:05.158Z,2.60
2018-02-07T11:30:32.628Z,2.50
2018-02-07T11:33:00.651Z,2.40
2018-02-07T11:35:28.122Z,2.60
2018-02-07T11:37:56.036Z,2.60
2018-02-07T11:40:23.550Z,2.50
2018-02-07T11:42:51.037Z,2.80
2018-02-07T11:45:18.519Z,2.70
2018-02-07T11:47:46.001Z,2.80
2018-02-07T11:50:13.485Z,2.70
2018-02-07T11:52:40.954Z,2.60
2018-02-07T11:55:08.444Z,2.40
2018-02-07T11:57:36.704Z,2.90
2018-02-07T12:00:04.208Z,3.00
2018-02-07T12:02:31.675Z,2.80
2018-02-07T12:04:59.182Z,2.80
2018-02-07T12:07:26.646Z,3.10
2018-02-07T12:09:54.914Z,3.00
2018-02-07T12:12:22.373Z,3.00
2018-02-07T12:14:49.855Z,3.10
2018-02-07T12:17:18.098Z,3.00
2018-02-07T12:19:45.582Z,3.10
2018-02-07T12:22:13.076Z,3.30
2018-02-07T12:24:40.565Z,3.40
2018-02-07T12:27:08.094Z,3.20
2018-02-07T12:29:36.556Z,3.20
2018-02-07T12:32:04.027Z,3.30
2018-02-07T12:34:31.488Z,2.60
2018-02-07T12:36:58.980Z,2.60
2018-02-07T12:39:26.452Z,2.60
2018-02-07T12:41:53.939Z,2.80
2018-02-07T12:44:22.182Z,2.40
2018-02-07T12:46:49.705Z,2.10
2018-02-07T12:49:17.147Z,2.30
2018-02-07T12:51:44.627Z,2.60
2018-02-07T12:54:12.084Z,2.60
2018-02-07T12:56:39.575Z,2.90
2018-02-07T12:59:07.048Z,3.00
2018-02-07T13:01:35.285Z,3.00
2018-02-07T13:04:02.759Z,2.90
2018-02-07T13:06:30.253Z,3.00
2018-02-07T13:08:59.311Z,3.10
2018-02-07T13:11:26.864Z,2.90
2018-02-07T13:13:54.339Z,3.10
2018-02-07T13:16:21.837Z,3.00
2018-02-07T13:18:50.071Z,3.40
2018-02-07T13:21:17.551Z,3.20
2018-02-07T13:23:45.803Z,3.00
2018-02-07T13:26:13.293Z,3.10
2018-02-07T13:28:41.537Z,2.80
2018-02-07T13:31:09.007Z,3.00
2018-02-07T13:33:36.513Z,2.70
2018-02-07T13:36:03.984Z,2.80
2018-02-07T13:38:31.492Z,2.80
2018-02-07T13:40:58.954Z,2.90
2018-02-07T13:43:27.197Z,2.70
2018-02-07T13:45:54.676Z,2.70
2018-02-07T13:48:22.147Z,2.70
2018-02-07T13:50:50.427Z,2.70
2018-02-07T13:53:18.663Z,2.50
2018-02-07T13:55:46.140Z,2.70
2018-02-07T13:58:13.634Z,2.70
2018-02-07T14:00:46.755Z,2.30
2018-02-07T14:03:14.237Z,2.30
2018-02-07T14:05:41.736Z,2.60
2018-02-07T14:08:09.975Z,2.50
2018-02-07T14:10:37.464Z,2.50
2018-02-07T14:13:05.737Z,2.40
2018-02-07T14:15:33.328Z,2.30
2018-02-07T14:18:00.803Z,2.50
2018-02-07T14:20:28.282Z,2.50
2018-02-07T14:22:55.739Z,2.50
2018-02-07T14:25:23.991Z,2.40
2018-02-07T14:27:51.476Z,2.10
2018-02-07T14:30:18.958Z,2.50
2018-02-07T14:32:46.439Z,2.50
2018-02-07T14:35:13.921Z,2.40
2018-02-07T14:37:41.461Z,2.50
2018-02-07T14:40:08.932Z,2.30
2018-02-07T14:42:36.409Z,2.40
2018-02-07T14:45:03.881Z,2.40
2018-02-07T14:47:31.347Z,2.40
2018-02-07T14:49:58.816Z,2.50
2018-02-07T14:52:26.310Z,2.50
2018-02-07T14:54:53.787Z,2.40
2018-02-07T14:57:21.282Z,2.40
2018-02-07T14:59:48.768Z,2.30
2018-02-07T15:02:17.018Z,2.00
2018-02-07T15:04:44.503Z,2.00
2018-02-07T15:07:12.776Z,2.10
2018-02-07T15:09:41.051Z,2.10
2018-02-07T15:12:09.299Z,2.00
2018-02-07T15:14:36.757Z,1.90
2018-02-07T15:17:04.234Z,2.20
2018-02-07T15:19:32.470Z,2.30
2018-02-07T15:21:59.949Z,2.10
2018-02-07T15:24:27.417Z,2.10
2018-02-07T15:26:54.917Z,1.90
2018-02-07T15:29:22.464Z,1.30
2018-02-07T15:31:50.706Z,1.50
2018-02-07T15:34:18.200Z,1.30
2018-02-07T15:36:46.440Z,1.40
2018-02-07T15:39:13.902Z,1.20
2018-02-07T15:41:41.388Z,1.20
2018-02-07T15:44:09.618Z,0.90
2018-02-07T15:46:37.099Z,1.10
2018-02-07T15:49:04.575Z,0.80
2018-02-07T15:51:32.822Z,0.80
2018-02-07T15:54:00.286Z,0.90
2018-02-07T15:56:27.770Z,0.70
2018-02-07T15:58:56.015Z,0.90
2018-02-07T16:01:23.543Z,0.90
2018-02-07T16:03:51.761Z,0.80
2018-02-07T16:06:19.263Z,0.80
2018-02-07T16:08:46.752Z,0.80
2018-02-07T16:11:14.231Z,0.60
2018-02-07T16:13:41.703Z,0.70
2018-02-07T16:16:09.959Z,0.80
2018-02-07T16:18:37.443Z,0.60
2018-02-07T16:21:05.688Z,0.20
2018-02-07T16:23:33.166Z,0.40
2018-02-07T16:26:00.644Z,0.20
2018-02-07T16:28:28.880Z,0.00
2018-02-07T16:30:56.351Z,-0.20
2018-02-07T16:33:23.841Z,-0.40
2018-02-07T16:35:51.341Z,0.00
2018-02-07T16:38:18.819Z,-0.10
2018-02-07T16:40:46.305Z,-0.30
2018-02-07T16:43:14.582Z,-0.10
2018-02-07T16:45:42.837Z,-0.30
2018-02-07T16:48:10.335Z,-0.10
2018-02-07T16:50:38.572Z,-0.80
2018-02-07T16:53:06.074Z,-0.90
2018-02-07T16:55:33.554Z,-1.10
2018-02-07T16:58:01.044Z,-1.10
2018-02-07T17:00:28.521Z,-1.10
2018-02-07T17:02:56.790Z,-1.00
2018-02-07T17:05:24.261Z,-0.80
2018-02-07T17:07:52.507Z,-0.80
2018-02-07T17:10:20.006Z,-1.00
2018-02-07T17:12:48.255Z,-0.90
2018-02-07T17:15:15.744Z,-0.70
2018-02-07T17:17:43.255Z,-1.00
2018-02-07T17:20:10.744Z,-0.80
2018-02-07T17:22:38.990Z,-0.70
2018-02-07T17:25:06.474Z,-0.70
2018-02-07T17:27:34.730Z,-1.10
2018-02-07T17:30:02.214Z,-1.10
2018-02-07T17:32:30.484Z,-1.00
2018-02-07T17:34:57.955Z,-1.00
2018-02-07T17:37:26.207Z,-1.10
2018-02-07T17:39:53.689Z,-1.00
2018-02-07T17:42:21.949Z,-1.30
2018-02-07T17:44:49.446Z,-1.20
2018-02-07T17:47:16.957Z,-1.30
2018-02-07T17:49:44.440Z,-1.20
2018-02-07T17:52:12.737Z,-1.40
2018-02-07T17:54:40.223Z,-1.30
2018-02-07T17:57:07.710Z,-1.30
2018-02-07T17:59:35.216Z,-1.20
2018-02-07T18:02:02.690Z,-1.30
2018-02-07T18:04:30.167Z,-1.20
2018-02-07T18:06:57.661Z,-1.20
2018-02-07T18:09:25.925Z,-1.80
2018-02-07T18:11:53.416Z,-1.60
2018-02-07T18:14:20.894Z,-1.80
2018-02-07T18:16:48.370Z,-1.80
2018-02-07T18:19:15.861Z,-1.90
2018-02-07T18:21:43.358Z,-2.10
2018-02-07T18:24:10.842Z,-2.10
2018-02-07T18:26:38.330Z,-2.00
2018-02-07T18:29:05.813Z,-1.90
2018-02-07T18:31:33.319Z,-2.10
2018-02-07T18:34:00.804Z,-2.10
2018-02-07T18:36:28.288Z,-2.00
2018-02-07T18:38:57.521Z,-1.80
2018-02-07T18:41:25.017Z,-1.70
2018-02-07T18:43:52.536Z,-1.90
2018-02-07T18:46:20.015Z,-2.20
2018-02-07T18:48:47.493Z,-2.30
2018-02-07T18:51:14.973Z,-2.30
2018-02-07T18:53:43.232Z,-2.90
2018-02-07T18:56:10.720Z,-2.90
2018-02-07T18:58:38.201Z,-2.40
2018-02-07T19:01:05.682Z,-2.50
2018-02-07T19:03:33.187Z,-2.70
2018-02-07T19:06:00.678Z,-2.60
2018-02-07T19:08:28.685Z,-2.60
2018-02-07T19:10:56.988Z,-2.80
2018-02-07T19:13:25.251Z,-3.10
2018-02-07T19:15:53.502Z,-3.10
2018-02-07T19:18:21.025Z,-3.10
2018-02-07T19:20:48.493Z,-3.10
2018-02-07T19:23:15.987Z,-3.10
2018-02-07T19:25:43.465Z,-2.90
2018-02-07T19:28:10.944Z,-2.80
2018-02-07T19:30:38.428Z,-3.00
2018-02-07T19:33:05.921Z,-2.90
2018-02-07T19:35:33.390Z,-3.10
2018-02-07T19:38:00.884Z,-2.90
2018-02-07T19:40:28.379Z,-2.90
2018-02-07T19:42:55.875Z,-2.90
2018-02-07T19:45:24.132Z,-3.00
2018-02-07T19:47:51.602Z,-2.80
2018-02-07T19:50:19.837Z,-2.90
2018-02-07T19:52:47.330Z,-2.60
2018-02-07T19:55:14.812Z,-2.50
2018-02-07T19:57:43.079Z,-2.90
2018-02-07T20:00:11.313Z,-3.10
2018-02-07T20:02:39.572Z,-3.00
2018-02-07T20:05:07.043Z,-2.80
2018-02-07T20:07:34.536Z,-3.20
2018-02-07T20:10:02.019Z,-3.20
2018-02-07T20:12:30.285Z,-3.10
2018-02-07T20:14:58.585Z,-3.20
2018-02-07T20:17:26.055Z,-3.10
2018-02-07T20:19:53.522Z,-3.10
2018-02-07T20:22:21.036Z,-3.30
2018-02-07T20:24:49.291Z,-3.40
2018-02-07T20:27:16.784Z,-3.30
2018-02-07T20:29:44.271Z,-2.80
2018-02-07T20:32:11.768Z,-2.80
2018-02-07T20:34:41.785Z,-2.80
2018-02-07T20:37:09.318Z,-2.80
2018-02-07T20:39:36.866Z,-2.80
2018-02-07T20:42:04.373Z,-2.60
2018-02-07T20:44:32.639Z,-2.40
2018-02-07T20:47:00.141Z,-2.40
2018-02-07T20:49:27.682Z,-2.20
2018-02-07T20:51:55.125Z,-1.90
2018-02-07T20:54:23.391Z,-2.00
2018-02-07T20:56:50.883Z,-1.80
2018-02-07T20:59:18.364Z,-1.70
2018-02-07T21:01:45.844Z,-1.60
2018-02-07T21:04:13.336Z,-1.60
2018-02-07T21:06:41.608Z,-1.60
2018-02-07T21:09:09.095Z,-1.50
2018-02-07T21:11:36.590Z,-1.40
2018-02-07T21:14:04.079Z,-1.30
2018-02-07T21:16:31.586Z,-1.40
2018-02-07T21:18:59.089Z,-1.30
2018-02-07T21:21:26.578Z,-1.30
2018-02-07T21:23:54.836Z,-1.20
2018-02-07T21:26:22.325Z,-1.30
2018-02-07T21:28:49.828Z,-1.20
2018-02-07T21:31:17.315Z,-1.10
2018-02-07T21:33:44.839Z,-1.10
2018-02-07T21:36:12.319Z,-1.20
2018-02-07T21:38:39.801Z,-1.40
2018-02-07T21:41:08.046Z,-1.20
2018-02-07T21:43:35.541Z,-1.20
2018-02-07T21:46:03.793Z,-1.40
2018-02-07T21:48:32.102Z,-1.10
2018-02-07T21:50:59.594Z,-1.00
2018-02-07T21:53:27.065Z,-0.80
2018-02-07T21:55:54.564Z,-0.90
2018-02-07T21:58:22.816Z,-0.60
2018-02-07T22:00:50.298Z,-0.90
2018-02-07T22:03:18.552Z,-0.80
2018-02-07T22:05:46.024Z,-0.90
2018-02-07T22:08:13.515Z,-1.00
2018-02-07T22:10:41.007Z,-0.80
2018-02-07T22:13:09.238Z,-1.00
2018-02-07T22:15:36.733Z,-1.10
2018-02-07T22:18:04.206Z,-1.00
2018-02-07T22:20:31.691Z,-0.80
2018-02-07T22:22:59.183Z,-0.80
2018-02-07T22:25:26.662Z,-0.80
2018-02-07T22:27:54.148Z,-0.90
2018-02-07T22:30:21.618Z,-0.80
2018-02-07T22:32:49.120Z,-0.80
2018-02-07T22:35:16.622Z,-1.00
2018-02-07T22:37:44.105Z,-0.90
2018-02-07T22:40:12.359Z,-1.10
2018-02-07T22:42:39.853Z,-0.90
2018-02-07T22:45:07.335Z,-0.90
2018-02-07T22:47:34.810Z,-1.00
2018-02-07T22:50:02.291Z,-1.10
2018-02-07T22:52:29.758Z,-0.90
2018-02-07T22:54:57.255Z,-0.80
2018-02-07T22:57:24.753Z,-0.90
2018-02-07T22:59:52.247Z,-0.60
2018-02-07T23:02:20.513Z,-0.60
2018-02-07T23:04:48.776Z,-0.80
2018-02-07T23:07:16.256Z,-0.90
2018-02-07T23:09:44.507Z,-0.80
2018-02-07T23:12:12.021Z,-0.70
2018-02-07T23:14:39.509Z,-1.20
2018-02-07T23:17:06.986Z,-1.10
2018-02-07T23:19:37.916Z,-1.10
2018-02-07T23:22:05.406Z,-1.00
2018-02-07T23:24:33.727Z,-1.00
2018-02-07T23:27:01.214Z,-1.00
2018-02-07T23:29:28.713Z,-1.00
2018-02-07T23:31:56.199Z,-0.70
2018-02-07T23:34:23.686Z,-1.10
2018-02-07T23:36:51.157Z,-1.00
2018-02-07T23:39:18.651Z,-1.20
2018-02-07T23:41:46.893Z,-0.80
2018-02-07T23:44:14.370Z,-0.80
2018-02-07T23:46:42.628Z,-1.20
2018-02-07T23:49:10.103Z,-1.00
2018-02-07T23:51:37.603Z,-1.00
2018-02-07T23:54:05.088Z,-0.80
2018-02-07T23:56:32.562Z,-1.00
2018-02-07T23:59:00.050Z,-1.30
